Klamath Falls, OR (97601)

7:23 AM PDT on July 23, 2016 (GMT -0700)
Klamath Falls City Schools | | Change Station

Elev 4104 ft 42.22 °N, 121.75 °W | Updated 4 seconds ago

Clear
Clear
52.0 °F
Feels Like 52.0 °F
N
0.0
Wind Variable Wind from North
Gusts 3.0 mph

Today
High -- | Low -- °F
--% Chance of Precip.
Yesterday
High -- | Low -- °F
Precip. -- in
Pressure 30.16 in
Visibility 10.0 miles
Clouds Clear
Dew Point 46 °F
Humidity 80%
Rainfall 0.00 in
Snow Depth Not available.
5:51 AM 8:34 PM
Waning Gibbous, 85% visible
METAR KLMT 231353Z 00000KT 10SM CLR 09/06 A3025 RMK AO2 SLP211 T00890061
Pressure 30.16 in
Visibility 10.0 miles
Clouds Clear
Dew Point 46 °F
Humidity 80%
Rainfall 0.00 in
Snow Depth Not available.
5:51 AM 8:34 PM
Waning Gibbous, 85% visible
METAR KLMT 231353Z 00000KT 10SM CLR 09/06 A3025 RMK AO2 SLP211 T00890061

10-Day Weather Forecast

Almanac

Astronomy

Jul. 23, 2016 Rise Set
Actual Time
Civil Twilight
Nautical Twilight
Astronomical Twilight
Moon
Length of Visible Light
Length of Day
Tomorrow will be .
, % of the Moon is Illuminated

Today's Extremes

State Highs State Lows

Community

WunderPhotos

Upload Photos

1,926,821 photos uploaded!

WunderBlog® & News

Nearby

Air Quality

  Air Quality AQ Index Pollutant
Not available.

Snow Depth

Station Depth Elevation

Earthquake Activity

City Distance Mag. Time & Date
Minimum magnitude displayed is 2.5.

Coastal Water Temperatures

Place Temperature

Stations

Nearby Weather Stations

Station Location Temp. Windchill Dew Point Humidity Wind Precip. Elev Updated Type
                   

Watches & Warnings

There are currently no watches in effect.